Port Coquitlam, Canada
Current Conditions -  °F | °C
As of 9:00 PM on Friday 24 Oct 2014 (Local Time) from CYVR Reporting Station
Overcast Overcast  
Wind Chill: 52°   Ceiling: 13000
Heat Index: 52°   Visibility: 30mi
Dew Point: 45°   Wind: 6mph
Humidity: 76%   Direction: 100°E
Pressure: 29.88"   Gusts: NA
Location:  49.26°N, 122.78°W
Report Text: CYVR 250400Z 10005KT 30SM BKN130 OVC180 11/07 A2988 RMK AC7AS1 SLP118
Loading
Personal Weather Stations






























Interactive Weather Map
Tropical Storm Tracking
New forecast layout! Learn more

10-Day Weather Forecast

Advertisements
Track Severe Weather on mobile